WetterOnline ( https://www.wetteronline.de )

Wetter aktuell Allgäu (in 700m)

Aktuelles Wetter: Kempten (705m)

6-stündlich | Neueste Meldungen
Ortszeit Temperatur Wetter
Sa, 12.06. 20:00 23.0° C bewölkt
Sa, 12.06. 14:00 25.0° C leicht bewölkt
Sa, 12.06. 8:00 16.1° C fast wolkenlos
Sa, 12.06. 2:00 13.9° C leicht bewölkt
Fr, 11.06. 20:00 22.9° C fast wolkenlos
Fr, 11.06. 14:00 21.3° C wolkig
Fr, 11.06. 8:00 14.0° C leicht bewölkt
Fr, 11.06. 2:00 12.7° C wolkig
Ortszeit Temperatur Wetter
Sa, 12.06. 22:30 20.2° C bewölkt
Sa, 12.06. 22:20 20.2° C bewölkt
Sa, 12.06. 22:10 20.3° C wolkig
Sa, 12.06. 22:00 20.5° C bewölkt
Sa, 12.06. 21:50 20.5° C bewölkt
Sa, 12.06. 21:40 20.9° C bewölkt
Sa, 12.06. 21:30 21.4° C bewölkt
Sa, 12.06. 21:00 22.3° C bewölkt
Ortszeit Relative Feuchte Sichtweite
Sa, 12.06. 20:00 48% 50 km
Sa, 12.06. 14:00 40% >70 km
Sa, 12.06. 8:00 72% 60 km
Sa, 12.06. 2:00 82% 40 km
Fr, 11.06. 20:00 42% 65 km
Fr, 11.06. 14:00 52% 65 km
Fr, 11.06. 8:00 82% 45 km
Fr, 11.06. 2:00 90% 60 km
Ortszeit Relative Feuchte Sichtweite
Sa, 12.06. 22:30 60% 65 km
Sa, 12.06. 22:20 60% -
Sa, 12.06. 22:10 60% -
Sa, 12.06. 22:00 61% 55 km
Sa, 12.06. 21:50 61% -
Sa, 12.06. 21:40 61% -
Sa, 12.06. 21:30 61% 50 km
Sa, 12.06. 21:00 55% 50 km
Ortszeit Niederschlagsmenge Niederschlagsart
Sa, 12.06. 20:00 0.0 l/m2 in 12 Std. -
Sa, 12.06. 14:00 0.0 l/m2 in 6 Std. -
Sa, 12.06. 8:00 0.0 l/m2 in 12 Std. -
Sa, 12.06. 2:00 0.0 l/m2 in 6 Std. -
Fr, 11.06. 20:00 0.0 l/m2 in 12 Std. -
Fr, 11.06. 14:00 0.0 l/m2 in 6 Std. -
Fr, 11.06. 8:00 0.0 l/m2 in 12 Std. -
Fr, 11.06. 2:00 0.0 l/m2 in 6 Std. -
Ortszeit Niederschlagsmenge Niederschlagsart
Sa, 12.06. 22:30 0.0 l/m2 in 1 Std. -
Sa, 12.06. 22:20 keine Meldung -
Sa, 12.06. 22:10 keine Meldung -
Sa, 12.06. 22:00 0.0 l/m2 in 1 Std. -
Sa, 12.06. 21:50 keine Meldung -
Sa, 12.06. 21:40 keine Meldung -
Sa, 12.06. 21:30 0.0 l/m2 in 1 Std. -
Sa, 12.06. 21:00 0.1 l/m2 in 1 Std. Regen
Ortszeit Stärke Spitze Richtung
km/h Bft. km/h Grad Sektor
Sa, 12.06. 20:00 11 2 40 260° W
Sa, 12.06. 14:00 11 2 25 270° W
Sa, 12.06. 8:00 7 2 18 160° S
Sa, 12.06. 2:00 7 2 15 160° S
Fr, 11.06. 20:00 4 1 22 310° NW
Fr, 11.06. 14:00 7 2 14 10° N
Fr, 11.06. 8:00 7 2 14 150° SO
Fr, 11.06. 2:00 7 2 18 170° S
Ortszeit Stärke Spitze Richtung
km/h Bft. km/h Grad Sektor
Sa, 12.06. 22:30 11 2 25 300° NW
Sa, 12.06. 22:20 11 2 - 300° NW
Sa, 12.06. 22:10 11 2 - 300° NW
Sa, 12.06. 22:00 9 2 26 300° NW
Sa, 12.06. 21:50 9 2 - 300° NW
Sa, 12.06. 21:40 11 2 - 310° NW
Sa, 12.06. 21:30 11 2 25 310° NW
Sa, 12.06. 21:00 15 3 39 280° W
Ortszeit Untergrenze Bedeckung Gattung
total tief tief mittel hoch
Sa, 12.06. 20:00 2400 m 8/8 5/8 - - -
Sa, 12.06. 14:00 1800 m 5/8 1/8 - - -
Sa, 12.06. 8:00 7800 m 1/8 0/8 - - -
Sa, 12.06. 2:00 10500 m 5/8 0/8 - - -
Fr, 11.06. 20:00 1800 m 1/8 1/8 - - -
Fr, 11.06. 14:00 1320 m 5/8 5/8 - - -
Fr, 11.06. 8:00 2400 m 3/8 1/8 - - -
Fr, 11.06. 2:00 9000 m 8/8 0/8 - - -
Ortszeit Bedeckungsgrad in Achtel und Wolkenuntergrenze
Sa, 12.06. 22:30 1(1320m) 7(2700m)
Sa, 12.06. 22:20 1(1320m) 1(2100m) 7(2700m)
Sa, 12.06. 22:10 2(1290m) 3(2100m) 6(2700m)
Sa, 12.06. 22:00 2(1290m) 5(1800m) 7(2400m)
Sa, 12.06. 21:50 2(1290m) 5(1800m) 7(2400m)
Sa, 12.06. 21:40 2(1320m) 7(2400m) 7(3000m)
Sa, 12.06. 21:30 4(1380m) 7(2700m) 8(3300m)
Sa, 12.06. 21:00 5(1500m) 7(2100m) 8(3300m)
Ortszeit Luftdruck NN (hPa) Tendenz (hPa in 3 Std.)
Sa, 12.06. 20:00 1018 0,0
Sa, 12.06. 14:00 1017 - 0,3
Sa, 12.06. 8:00 1020 + 0,2
Sa, 12.06. 2:00 1021 + 0,3
Fr, 11.06. 20:00 1017 + 0,2
Fr, 11.06. 14:00 1018 - 0,5
Fr, 11.06. 8:00 1021 + 0,9
Fr, 11.06. 2:00 1021 - 0,7
Ortszeit Luftdruck NN (hPa) Tendenz (hPa in 3 Std.)
Sa, 12.06. 22:30 1021 + 2,1
Sa, 12.06. 22:20 1021 keine Meldung
Sa, 12.06. 22:10 1020 keine Meldung
Sa, 12.06. 22:00 1020 + 1,9
Sa, 12.06. 21:50 1020 keine Meldung
Sa, 12.06. 21:40 1020 keine Meldung
Sa, 12.06. 21:30 1019 + 1,3
Sa, 12.06. 21:00 1018 + 0,7
Ortszeit Schneehöhe (cm)
Sa, 12.06. 20:00 -
Sa, 12.06. 14:00 -
Sa, 12.06. 8:00 -
Sa, 12.06. 2:00 -
Fr, 11.06. 20:00 -
Fr, 11.06. 14:00 -
Fr, 11.06. 8:00 -
Fr, 11.06. 2:00 -
Ortszeit Schneehöhe (cm)
Sa, 12.06. 22:30 -
Sa, 12.06. 22:20 -
Sa, 12.06. 22:10 -
Sa, 12.06. 22:00 -
Sa, 12.06. 21:50 -
Sa, 12.06. 21:40 -
Sa, 12.06. 21:30 -
Sa, 12.06. 21:00 -
Link zu dieser Seite / Seite empfehlen

Das Wetter in ...